createdAt,value
2018-05-21T00:01:51.908Z,15.98
2018-05-21T00:04:24.217Z,15.94
2018-05-21T00:06:55.782Z,15.92
2018-05-21T00:09:28.729Z,15.86
2018-05-21T00:12:01.153Z,15.83
2018-05-21T00:14:34.954Z,15.79
2018-05-21T00:17:07.197Z,15.78
2018-05-21T00:19:40.478Z,15.75
2018-05-21T00:22:12.794Z,15.70
2018-05-21T00:24:45.194Z,15.67
2018-05-21T00:27:17.137Z,15.61
2018-05-21T00:29:54.336Z,15.57
2018-05-21T00:32:26.696Z,15.55
2018-05-21T00:35:02.473Z,15.52
2018-05-21T00:37:36.131Z,15.51
2018-05-21T00:40:10.554Z,15.48
2018-05-21T00:42:45.517Z,15.45
2018-05-21T00:45:19.930Z,15.43
2018-05-21T00:47:52.213Z,15.42
2018-05-21T00:50:28.270Z,15.39
2018-05-21T00:53:00.355Z,15.34
2018-05-21T00:55:42.994Z,15.31
2018-05-21T00:58:15.136Z,15.28
2018-05-21T01:00:46.893Z,15.22
2018-05-21T01:03:20.021Z,15.17
2018-05-21T01:05:53.472Z,15.16
2018-05-21T01:08:26.217Z,15.15
2018-05-21T01:10:58.930Z,15.13
2018-05-21T01:13:31.472Z,15.10
2018-05-21T01:16:04.913Z,15.08
2018-05-21T01:18:37.952Z,15.06
2018-05-21T01:21:09.577Z,15.06
2018-05-21T01:23:43.637Z,15.06
2018-05-21T01:26:15.621Z,15.05
2018-05-21T01:28:48.753Z,15.05
2018-05-21T01:31:23.696Z,15.05
2018-05-21T01:33:57.352Z,15.05
2018-05-21T01:36:30.615Z,15.03
2018-05-21T01:39:03.128Z,15.04
2018-05-21T01:41:35.933Z,15.02
2018-05-21T01:44:08.353Z,15.01
2018-05-21T01:46:41.055Z,14.99
2018-05-21T01:49:16.256Z,14.98
2018-05-21T01:51:49.032Z,14.97
2018-05-21T01:54:23.735Z,14.94
2018-05-21T01:56:56.315Z,14.91
2018-05-21T01:59:28.597Z,14.89
2018-05-21T02:02:02.459Z,14.88
2018-05-21T02:04:34.595Z,14.86
2018-05-21T02:07:07.514Z,14.88
2018-05-21T02:09:39.651Z,14.87
2018-05-21T02:12:12.295Z,14.87
2018-05-21T02:14:45.137Z,14.87
2018-05-21T02:17:19.431Z,14.83
2018-05-21T02:19:52.727Z,14.82
2018-05-21T02:22:25.632Z,14.78
2018-05-21T02:24:58.156Z,14.75
2018-05-21T02:27:30.011Z,14.73
2018-05-21T02:30:02.739Z,14.71
2018-05-21T02:32:34.837Z,14.69
2018-05-21T02:35:07.396Z,14.68
2018-05-21T02:37:41.198Z,14.67
2018-05-21T02:40:14.515Z,14.65
2018-05-21T02:42:46.538Z,14.62
2018-05-21T02:45:19.416Z,14.59
2018-05-21T02:47:51.842Z,14.59
2018-05-21T02:50:24.678Z,14.57
2018-05-21T02:52:58.114Z,14.57
2018-05-21T02:55:31.715Z,14.56
2018-05-21T02:58:03.914Z,14.56
2018-05-21T03:00:38.917Z,14.53
2018-05-21T03:03:13.730Z,14.50
2018-05-21T03:05:47.034Z,14.45
2018-05-21T03:08:20.173Z,14.43
2018-05-21T03:10:55.484Z,14.40
2018-05-21T03:13:29.432Z,14.37
2018-05-21T03:16:08.674Z,14.36
2018-05-21T03:18:40.871Z,14.33
2018-05-21T03:21:13.156Z,14.32
2018-05-21T03:23:45.097Z,14.30
2018-05-21T03:26:18.757Z,14.28
2018-05-21T03:28:53.273Z,14.28
2018-05-21T03:31:27.855Z,14.26
2018-05-21T03:34:02.231Z,14.24
2018-05-21T03:36:37.213Z,14.24
2018-05-21T03:39:11.616Z,14.25
2018-05-21T03:41:44.814Z,14.22
2018-05-21T03:44:18.401Z,14.20
2018-05-21T03:46:51.431Z,14.18
2018-05-21T03:49:24.341Z,14.14
2018-05-21T03:51:57.235Z,14.13
2018-05-21T03:54:30.210Z,14.09
2018-05-21T03:57:03.602Z,14.08
2018-05-21T03:59:52.375Z,14.04
2018-05-21T04:02:41.437Z,14.00
2018-05-21T04:05:18.191Z,13.97
2018-05-21T04:07:51.215Z,13.95
2018-05-21T04:10:25.993Z,13.95
2018-05-21T04:13:02.075Z,13.94
2018-05-21T04:15:34.991Z,13.92
2018-05-21T04:18:09.691Z,13.91
2018-05-21T04:20:42.834Z,13.90
2018-05-21T04:23:17.332Z,13.91
2018-05-21T04:25:50.441Z,13.92
2018-05-21T04:28:22.976Z,13.92
2018-05-21T04:30:56.853Z,13.92
2018-05-21T04:33:29.710Z,13.93
2018-05-21T04:36:02.335Z,13.93
2018-05-21T04:38:34.793Z,13.95
2018-05-21T04:41:08.097Z,13.98
2018-05-21T04:43:41.212Z,14.03
2018-05-21T04:46:17.618Z,14.07
2018-05-21T04:48:49.657Z,14.11
2018-05-21T04:51:21.912Z,14.16
2018-05-21T04:53:54.259Z,14.20
2018-05-21T04:56:27.297Z,14.25
2018-05-21T04:58:59.331Z,14.29
2018-05-21T05:01:31.414Z,14.34
2018-05-21T05:04:04.016Z,14.41
2018-05-21T05:06:36.318Z,14.45
2018-05-21T05:09:09.463Z,14.52
2018-05-21T05:11:44.917Z,14.59
2018-05-21T05:14:17.714Z,14.69
2018-05-21T05:16:51.353Z,14.77
2018-05-21T05:19:26.697Z,14.86
2018-05-21T05:21:59.394Z,14.99
2018-05-21T05:24:31.837Z,15.13
2018-05-21T05:27:04.161Z,15.27
2018-05-21T05:29:36.793Z,15.37
2018-05-21T05:32:09.806Z,15.47
2018-05-21T05:34:43.014Z,15.56
2018-05-21T05:37:15.456Z,15.69
2018-05-21T05:39:47.921Z,15.77
2018-05-21T05:42:22.298Z,15.88
2018-05-21T05:44:55.734Z,16.00
2018-05-21T05:47:29.052Z,16.11
2018-05-21T05:50:01.794Z,16.25
2018-05-21T05:52:34.913Z,16.35
2018-05-21T05:55:08.699Z,16.46
2018-05-21T05:57:42.395Z,16.58
2018-05-21T06:00:16.389Z,16.73
2018-05-21T06:02:50.577Z,16.90
2018-05-21T06:05:22.916Z,17.02
2018-05-21T06:07:57.036Z,17.12
2018-05-21T06:10:29.451Z,17.22
2018-05-21T06:13:02.615Z,17.34
2018-05-21T06:15:38.471Z,17.45
2018-05-21T06:18:11.714Z,17.60
2018-05-21T06:20:43.935Z,17.77
2018-05-21T06:23:16.436Z,17.91
2018-05-21T06:25:49.602Z,18.07
2018-05-21T06:28:22.135Z,18.35
2018-05-21T06:30:54.737Z,18.73
2018-05-21T06:33:26.894Z,19.00
2018-05-21T06:36:01.272Z,19.23
2018-05-21T06:38:33.337Z,19.41
2018-05-21T06:41:05.707Z,19.55
2018-05-21T06:43:38.120Z,19.66
2018-05-21T06:46:10.312Z,19.78
2018-05-21T06:48:43.130Z,19.92
2018-05-21T06:51:16.795Z,20.04
2018-05-21T06:53:49.693Z,20.21
2018-05-21T06:56:23.111Z,20.42
2018-05-21T06:58:56.516Z,20.83
2018-05-21T07:01:29.587Z,21.45
2018-05-21T07:04:03.611Z,22.08
2018-05-21T07:06:37.980Z,22.83
2018-05-21T07:09:15.695Z,23.47
2018-05-21T07:11:51.175Z,24.03
2018-05-21T07:14:24.551Z,24.61
2018-05-21T07:17:02.219Z,24.97
2018-05-21T07:19:34.615Z,25.20
2018-05-21T07:22:07.752Z,25.45
2018-05-21T07:24:40.877Z,25.80
2018-05-21T07:27:15.431Z,26.06
2018-05-21T07:29:48.075Z,26.24
2018-05-21T07:32:22.498Z,26.40
2018-05-21T07:34:55.251Z,26.76
2018-05-21T07:37:29.055Z,27.29
2018-05-21T07:40:03.435Z,27.54
2018-05-21T07:42:36.699Z,27.49
2018-05-21T07:45:10.432Z,27.42
2018-05-21T07:47:44.290Z,27.36
2018-05-21T07:50:18.695Z,27.44
2018-05-21T07:52:52.671Z,27.53
2018-05-21T07:55:25.511Z,27.55
2018-05-21T07:57:58.856Z,27.60
2018-05-21T08:00:33.692Z,27.55
2018-05-21T08:03:06.790Z,27.40
2018-05-21T08:05:40.032Z,27.38
2018-05-21T08:08:15.037Z,27.37
2018-05-21T08:10:48.843Z,27.46
2018-05-21T08:13:30.251Z,27.51
2018-05-21T08:16:04.037Z,27.57
2018-05-21T08:18:37.060Z,27.79
2018-05-21T08:21:10.878Z,27.88
2018-05-21T08:23:42.902Z,27.87
2018-05-21T08:26:15.282Z,27.86
2018-05-21T08:28:48.212Z,27.84
2018-05-21T08:31:27.815Z,27.80
2018-05-21T08:34:06.656Z,27.69
2018-05-21T08:36:39.733Z,27.57
2018-05-21T08:39:12.491Z,27.53
2018-05-21T08:41:45.654Z,27.56
2018-05-21T08:44:18.655Z,27.49
2018-05-21T08:46:52.556Z,27.51
2018-05-21T08:49:27.916Z,27.53
2018-05-21T08:52:00.773Z,27.53
2018-05-21T08:54:36.485Z,27.48
2018-05-21T08:57:10.315Z,27.37
2018-05-21T08:59:42.980Z,27.21
2018-05-21T09:02:16.556Z,27.22
2018-05-21T09:04:49.901Z,27.14
2018-05-21T09:07:23.216Z,27.07
2018-05-21T09:09:58.861Z,27.01
2018-05-21T09:12:35.458Z,26.97
2018-05-21T09:15:09.896Z,26.87
2018-05-21T09:17:43.498Z,26.86
2018-05-21T09:20:17.514Z,26.82
2018-05-21T09:22:53.398Z,26.82
2018-05-21T09:25:27.773Z,26.74
2018-05-21T09:28:03.034Z,26.71
2018-05-21T09:30:40.630Z,26.71
2018-05-21T09:33:14.776Z,26.70
2018-05-21T09:35:49.236Z,26.70
2018-05-21T09:38:22.672Z,26.71
2018-05-21T09:40:56.038Z,26.77
2018-05-21T09:43:29.145Z,26.85
2018-05-21T09:46:01.959Z,26.97
2018-05-21T09:48:35.846Z,27.11
2018-05-21T09:51:12.412Z,27.22
2018-05-21T09:53:45.654Z,27.28
2018-05-21T09:56:18.673Z,27.34
2018-05-21T09:58:51.936Z,27.41
2018-05-21T10:01:25.895Z,27.52
2018-05-21T10:03:58.557Z,27.62
2018-05-21T10:06:30.709Z,27.62
2018-05-21T10:09:04.633Z,27.71
2018-05-21T10:11:36.250Z,27.81
2018-05-21T10:14:10.976Z,27.90
2018-05-21T10:16:49.852Z,27.99
2018-05-21T10:19:25.106Z,28.13
2018-05-21T10:22:00.420Z,28.24
2018-05-21T10:24:36.335Z,28.19
2018-05-21T10:27:08.754Z,28.13
2018-05-21T10:29:43.430Z,28.06
2018-05-21T10:32:18.033Z,27.99
2018-05-21T10:34:50.434Z,27.64
2018-05-21T10:37:25.336Z,27.51
2018-05-21T10:40:02.736Z,27.57
2018-05-21T10:42:37.454Z,27.71
2018-05-21T10:45:09.693Z,27.74
2018-05-21T10:47:42.371Z,27.83
2018-05-21T10:50:15.873Z,28.00
2018-05-21T10:52:50.772Z,28.28
2018-05-21T10:55:24.877Z,28.45
2018-05-21T10:58:02.479Z,28.51
2018-05-21T11:00:36.938Z,28.55
2018-05-21T11:03:10.716Z,28.68
2018-05-21T11:05:44.990Z,28.78
2018-05-21T11:08:19.677Z,28.87
2018-05-21T11:10:53.810Z,28.94
2018-05-21T11:13:27.953Z,29.05
2018-05-21T11:16:02.771Z,29.16
2018-05-21T11:18:37.996Z,29.13
2018-05-21T12:12:05.271Z,27.61
2018-05-21T12:14:39.390Z,28.00
2018-05-21T12:17:13.236Z,28.50
2018-05-21T12:19:46.539Z,28.91
2018-05-21T12:22:19.551Z,29.05
2018-05-21T12:54:46.338Z,27.79
2018-05-21T12:57:19.892Z,27.62
2018-05-21T12:59:56.615Z,27.43
2018-05-21T13:02:29.172Z,27.30
2018-05-21T13:05:04.674Z,27.18
2018-05-21T13:07:38.516Z,27.07
2018-05-21T13:10:16.422Z,26.89
2018-05-21T13:12:50.094Z,26.84
2018-05-21T13:15:26.230Z,26.88
2018-05-21T13:18:00.006Z,26.86
2018-05-21T13:20:33.373Z,26.87
2018-05-21T13:23:08.135Z,26.83
2018-05-21T13:25:43.809Z,26.79
2018-05-21T13:28:17.214Z,26.69
2018-05-21T13:30:50.735Z,26.60
2018-05-21T13:33:25.691Z,26.50
2018-05-21T13:36:00.075Z,26.41
2018-05-21T13:38:35.495Z,26.32
2018-05-21T13:41:08.697Z,26.28
2018-05-21T13:43:42.753Z,26.26
2018-05-21T13:46:17.517Z,26.22
2018-05-21T13:48:51.058Z,26.19
2018-05-21T13:51:24.275Z,26.17
2018-05-21T13:53:58.192Z,26.19
2018-05-21T13:56:32.073Z,26.31
2018-05-21T13:59:06.335Z,26.65
2018-05-21T14:01:41.954Z,27.04
2018-05-21T14:04:18.074Z,27.16
2018-05-21T14:06:52.973Z,27.31
2018-05-21T14:09:27.475Z,27.53
2018-05-21T14:12:02.937Z,27.45
2018-05-21T14:14:35.434Z,27.27
2018-05-21T14:17:12.015Z,27.09
2018-05-21T15:49:48.143Z,28.48
2018-05-21T15:52:24.922Z,28.54
2018-05-21T15:54:57.424Z,28.63
2018-05-21T15:57:30.745Z,28.70
2018-05-21T16:00:05.240Z,28.77
2018-05-21T16:02:37.527Z,28.83
2018-05-21T16:05:10.639Z,28.92
2018-05-21T16:07:46.039Z,29.00
2018-05-21T16:10:21.258Z,28.98
2018-05-21T16:12:55.402Z,28.96
2018-05-21T16:15:30.347Z,28.91
2018-05-21T16:18:05.121Z,28.76
2018-05-21T16:20:38.683Z,28.70
2018-05-21T16:23:13.028Z,28.59
2018-05-21T16:25:45.721Z,28.38
2018-05-21T16:28:17.945Z,28.25
2018-05-21T16:30:51.344Z,28.12
2018-05-21T16:33:28.939Z,28.04
2018-05-21T16:36:04.124Z,27.99
2018-05-21T16:38:41.001Z,27.91
2018-05-21T16:41:17.622Z,27.74
2018-05-21T16:43:51.360Z,27.61
2018-05-21T16:46:27.977Z,27.48
2018-05-21T16:49:05.423Z,27.39
2018-05-21T16:51:42.529Z,27.19
2018-05-21T16:54:18.379Z,26.90
2018-05-21T16:56:52.641Z,26.52
2018-05-21T16:59:31.782Z,26.21
2018-05-21T17:02:09.419Z,25.89
2018-05-21T17:04:43.983Z,25.58
2018-05-21T17:07:19.087Z,25.29
2018-05-21T17:09:52.318Z,25.05
2018-05-21T17:12:26.881Z,24.83
2018-05-21T17:15:02.427Z,24.63
2018-05-21T17:17:37.861Z,24.43
2018-05-21T17:20:10.095Z,24.26
2018-05-21T17:22:42.520Z,24.14
2018-05-21T17:25:15.465Z,24.06
2018-05-21T17:27:49.259Z,23.96
2018-05-21T17:30:23.860Z,23.84
2018-05-21T17:32:58.081Z,23.74
2018-05-21T17:35:31.203Z,23.65
2018-05-21T17:38:03.779Z,23.53
2018-05-21T17:40:39.305Z,23.42
2018-05-21T17:43:12.062Z,23.34
2018-05-21T17:45:44.863Z,23.28
2018-05-21T17:48:20.240Z,23.25
2018-05-21T17:50:53.945Z,23.19
2018-05-21T17:53:26.581Z,23.16
2018-05-21T17:56:01.398Z,23.10
2018-05-21T17:58:34.119Z,23.04
2018-05-21T18:01:07.026Z,22.96
2018-05-21T18:03:39.231Z,22.90
2018-05-21T18:06:12.076Z,22.84
2018-05-21T18:08:44.403Z,22.78
2018-05-21T18:11:17.743Z,22.73
2018-05-21T18:13:50.680Z,22.70
2018-05-21T18:16:24.918Z,22.66
2018-05-21T18:19:00.804Z,22.60
2018-05-21T18:21:36.489Z,22.56
2018-05-21T18:24:14.941Z,22.51
2018-05-21T18:26:48.102Z,22.48
2018-05-21T18:29:21.362Z,22.43
2018-05-21T18:31:54.298Z,22.37
2018-05-21T18:34:28.324Z,22.29
2018-05-21T18:37:10.905Z,22.24
2018-05-21T18:39:44.322Z,22.19
2018-05-21T18:42:19.229Z,22.15
2018-05-21T18:44:52.279Z,22.12
2018-05-21T18:47:25.666Z,22.05
2018-05-21T18:49:59.299Z,21.98
2018-05-21T18:52:31.919Z,21.94
2018-05-21T18:55:06.278Z,21.86
2018-05-21T18:57:40.261Z,21.81
2018-05-21T19:00:15.215Z,21.78
2018-05-21T19:02:47.927Z,21.71
2018-05-21T19:05:21.879Z,21.67
2018-05-21T19:07:56.324Z,21.64
2018-05-21T19:10:29.598Z,21.58
2018-05-21T19:13:07.186Z,21.52
2018-05-21T19:15:41.843Z,21.47
2018-05-21T19:18:15.401Z,21.37
2018-05-21T19:20:48.737Z,21.31
2018-05-21T19:23:21.201Z,21.21
2018-05-21T19:25:54.303Z,21.12
2018-05-21T19:28:26.946Z,21.03
2018-05-21T19:30:59.502Z,20.95
2018-05-21T19:33:31.686Z,20.88
2018-05-21T19:36:04.326Z,20.79
2018-05-21T19:38:38.007Z,20.71
2018-05-21T19:41:12.042Z,20.61
2018-05-21T19:43:45.197Z,20.48
2018-05-21T19:46:17.936Z,20.37
2018-05-21T19:48:51.263Z,20.26
2018-05-21T19:51:23.761Z,20.14
2018-05-21T19:53:57.503Z,20.07
2018-05-21T19:56:30.498Z,19.98
2018-05-21T19:59:03.302Z,19.92
2018-05-21T20:01:37.158Z,19.80
2018-05-21T20:04:11.926Z,19.73
2018-05-21T20:06:44.866Z,19.66
2018-05-21T20:09:19.619Z,19.55
2018-05-21T20:11:52.005Z,19.46
2018-05-21T20:14:24.602Z,19.38
2018-05-21T20:16:57.838Z,19.32
2018-05-21T20:19:30.361Z,19.26
2018-05-21T20:22:02.782Z,19.19
2018-05-21T20:24:36.237Z,19.10
2018-05-21T20:27:10.021Z,19.02
2018-05-21T20:29:44.480Z,18.91
2018-05-21T20:32:18.463Z,18.81
2018-05-21T20:34:51.880Z,18.73
2018-05-21T20:37:24.367Z,18.66
2018-05-21T20:39:56.988Z,18.58
2018-05-21T20:42:31.317Z,18.49
2018-05-21T20:45:03.739Z,18.40
2018-05-21T20:47:37.501Z,18.34
2018-05-21T20:50:10.263Z,18.29
2018-05-21T20:52:43.584Z,18.22
2018-05-21T20:55:16.498Z,18.16
2018-05-21T20:57:49.304Z,18.10
2018-05-21T21:00:22.440Z,18.04
2018-05-21T21:02:55.826Z,17.97
2018-05-21T21:05:28.662Z,17.89
2018-05-21T21:08:00.903Z,17.84
2018-05-21T21:10:34.904Z,17.81
2018-05-21T21:13:08.019Z,17.73
2018-05-21T21:15:40.859Z,17.69
2018-05-21T21:18:13.634Z,17.60
2018-05-21T21:20:47.565Z,17.57
2018-05-21T21:23:20.454Z,17.56
2018-05-21T21:25:54.101Z,17.55
2018-05-21T21:28:27.243Z,17.53
2018-05-21T21:31:00.999Z,17.44
2018-05-21T21:33:35.739Z,17.40
2018-05-21T21:36:11.461Z,17.33
2018-05-21T21:38:44.879Z,17.30
2018-05-21T21:41:20.163Z,17.24
2018-05-21T21:43:53.840Z,17.20
2018-05-21T21:46:28.729Z,17.17
2018-05-21T21:49:02.645Z,17.11
2018-05-21T21:51:35.620Z,17.08
2018-05-21T21:54:08.659Z,17.02
2018-05-21T21:56:41.417Z,16.97
2018-05-21T21:59:16.786Z,16.91
2018-05-21T22:01:50.021Z,16.86
2018-05-21T22:04:22.862Z,16.80
2018-05-21T22:06:55.559Z,16.77
2018-05-21T22:09:28.220Z,16.69
2018-05-21T22:31:30.502Z,16.41
2018-05-21T22:34:04.565Z,16.39
2018-05-21T22:36:38.708Z,16.38
2018-05-21T22:39:11.650Z,16.38
2018-05-21T22:41:44.758Z,16.31
2018-05-21T22:44:17.417Z,16.27
2018-05-21T22:46:51.342Z,16.25
2018-05-21T22:49:25.244Z,16.17
2018-05-21T22:51:57.483Z,16.12
2018-05-21T22:54:39.824Z,16.07
2018-05-21T22:57:13.379Z,16.01
2018-05-21T22:59:45.419Z,15.97
2018-05-21T23:02:18.221Z,15.92
2018-05-21T23:04:51.765Z,15.84
2018-05-21T23:07:26.362Z,15.77
2018-05-21T23:09:58.920Z,15.75
2018-05-21T23:12:31.298Z,15.70
2018-05-21T23:15:03.976Z,15.65
2018-05-21T23:17:38.357Z,15.59
2018-05-21T23:20:10.544Z,15.53
2018-05-21T23:22:47.943Z,15.48
2018-05-21T23:25:20.280Z,15.46
2018-05-21T23:27:52.580Z,15.48
2018-05-21T23:30:24.880Z,15.50
2018-05-21T23:32:57.281Z,15.50
2018-05-21T23:35:29.378Z,15.45
2018-05-21T23:38:01.964Z,15.35
2018-05-21T23:40:34.559Z,15.28
2018-05-21T23:43:06.763Z,15.21
2018-05-21T23:45:38.864Z,15.17
2018-05-21T23:48:11.265Z,15.17
2018-05-21T23:50:43.898Z,15.16
2018-05-21T23:53:17.456Z,15.14
2018-05-21T23:55:50.981Z,15.12
2018-05-21T23:58:24.139Z,15.07
